Time;durP1;ratioP1;P1;durP2;ratioP2;P2;SDS_P1;SDS_P2;PMS_P1;PMS_P2;Temp;Humidity;BMP_temperature;BMP_pressure;BME280_temperature;BME280_humidity;BME280_pressure;Samples;Min_cycle;Max_cycle;Signal;HPM_P1;HPM_P2
2022/02/26 00:00:18;;;;;;;5.65;1.83;;;;;;;;;;5015245;28;20076;-64
2022/02/26 00:02:44;;;;;;;6.53;1.73;;;;;;;;;;5015157;28;20401;-65
2022/02/26 00:05:10;;;;;;;7.28;2.30;;;;;;;;;;4997298;28;20469;-64
2022/02/26 00:07:36;;;;;;;6.72;1.75;;;;;;;;;;5015301;28;20029;-64
2022/02/26 00:10:03;;;;;;;4.57;1.52;;;;;;;;;;5014914;28;20079;-64
2022/02/26 00:12:29;;;;;;;7.70;2.28;;;;;;;;;;5014818;28;20152;-66
2022/02/26 00:14:55;;;;;;;10.00;1.92;;;;;;;;;;5014682;28;20465;-66
2022/02/26 00:17:21;;;;;;;7.55;2.03;;;;;;;;;;5014342;28;20489;-63
2022/02/26 00:19:47;;;;;;;6.53;2.08;;;;;;;;;;5014789;28;20033;-63
2022/02/26 00:22:13;;;;;;;6.82;1.88;;;;;;;;;;5018969;28;20022;-63
2022/02/26 00:24:39;;;;;;;8.68;1.90;;;;;;;;;;5008266;28;20052;-63
2022/02/26 00:27:05;;;;;;;6.55;1.75;;;;;;;;;;5034309;28;20032;-63
2022/02/26 00:29:34;;;;;;;12.13;1.95;;;;;;;;;;5017047;28;20030;-63
2022/02/26 00:32:00;;;;;;;14.20;1.70;;;;;;;;;;5014619;28;20116;-62
2022/02/26 00:34:26;;;;;;;10.93;1.88;;;;;;;;;;5014528;28;20025;-63
2022/02/26 00:36:53;;;;;;;12.65;2.30;;;;;;;;;;4995775;28;20030;-61
2022/02/26 00:39:19;;;;;;;6.80;1.80;;;;;;;;;;4994984;28;20335;-62
2022/02/26 00:41:45;;;;;;;9.82;1.88;;;;;;;;;;4976807;28;20462;-63
2022/02/26 00:44:11;;;;;;;10.73;2.35;;;;;;;;;;4994726;28;20022;-63
2022/02/26 00:46:37;;;;;;;9.38;1.98;;;;;;;;;;4994833;28;20375;-62
2022/02/26 00:51:48;;;;;;;4.22;1.90;;;;;;;;;;5024938;28;20067;-62
2022/02/26 00:54:14;;;;;;;8.52;1.75;;;;;;;;;;5033503;28;20101;-63
2022/02/26 00:56:42;;;;;;;8.98;2.20;;;;;;;;;;5033669;28;20183;-62
2022/02/26 00:59:08;;;;;;;5.40;1.67;;;;;;;;;;5033838;28;20029;-63
2022/02/26 01:01:35;;;;;;;9.57;2.47;;;;;;;;;;5033672;28;20476;-63
2022/02/26 01:04:01;;;;;;;6.20;1.80;;;;;;;;;;5016324;28;20107;-64
2022/02/26 01:06:27;;;;;;;12.32;1.88;;;;;;;;;;5029379;28;20456;-63
2022/02/26 01:08:53;;;;;;;3.53;1.77;;;;;;;;;;5022480;28;20026;-63
2022/02/26 01:11:19;;;;;;;6.13;1.77;;;;;;;;;;5014717;28;20080;-64
2022/02/26 01:13:45;;;;;;;4.35;1.67;;;;;;;;;;5014314;28;20504;-62
2022/02/26 01:16:11;;;;;;;6.38;1.65;;;;;;;;;;5013638;28;20529;-62
2022/02/26 01:18:37;;;;;;;4.22;1.55;;;;;;;;;;5014099;28;20057;-63
2022/02/26 01:21:03;;;;;;;5.32;1.58;;;;;;;;;;5013815;28;20030;-63
2022/02/26 01:23:29;;;;;;;6.85;1.90;;;;;;;;;;5013269;28;20072;-63
2022/02/26 01:25:55;;;;;;;5.60;1.60;;;;;;;;;;5013629;28;20026;-63
2022/02/26 01:28:21;;;;;;;3.42;1.55;;;;;;;;;;5006035;28;20027;-63
2022/02/26 01:30:48;;;;;;;3.95;1.52;;;;;;;;;;4993769;28;20378;-63
2022/02/26 01:33:14;;;;;;;5.00;1.50;;;;;;;;;;4993419;28;20031;-63
2022/02/26 01:35:40;;;;;;;3.38;1.65;;;;;;;;;;5010117;28;20473;-62
2022/02/26 01:38:07;;;;;;;5.10;1.80;;;;;;;;;;5019967;28;20128;-63
2022/02/26 01:40:33;;;;;;;5.47;1.55;;;;;;;;;;5013229;28;20479;-63
2022/02/26 01:42:59;;;;;;;4.88;1.63;;;;;;;;;;5012764;28;20026;-63
2022/02/26 01:45:26;;;;;;;4.57;1.33;;;;;;;;;;5013184;28;20037;-63
2022/02/26 01:47:53;;;;;;;4.00;1.60;;;;;;;;;;5013179;28;20018;-62
2022/02/26 01:50:19;;;;;;;3.83;1.77;;;;;;;;;;5012046;28;20151;-62
2022/02/26 01:52:45;;;;;;;4.57;1.55;;;;;;;;;;5023083;28;20146;-62
2022/02/26 01:55:11;;;;;;;4.00;1.50;;;;;;;;;;5014955;28;20182;-61
2022/02/26 01:57:37;;;;;;;5.35;1.50;;;;;;;;;;5032822;28;20029;-62
2022/02/26 02:00:07;;;;;;;3.67;1.40;;;;;;;;;;5033134;28;20395;-62
2022/02/26 02:02:33;;;;;;;3.40;1.45;;;;;;;;;;5032789;28;20163;-63
2022/02/26 02:04:59;;;;;;;4.22;1.80;;;;;;;;;;5032332;28;20052;-62
2022/02/26 02:07:25;;;;;;;5.82;1.83;;;;;;;;;;5032659;28;20033;-62
2022/02/26 02:09:51;;;;;;;5.60;1.90;;;;;;;;;;5024742;28;20044;-62
2022/02/26 02:12:17;;;;;;;3.95;1.40;;;;;;;;;;5032281;28;20041;-63
2022/02/26 02:14:47;;;;;;;5.95;1.70;;;;;;;;;;5032519;28;20022;-61
2022/02/26 02:17:13;;;;;;;3.55;1.42;;;;;;;;;;5032711;28;20064;-61
2022/02/26 02:19:39;;;;;;;2.47;1.27;;;;;;;;;;5032580;28;20028;-61
2022/02/26 02:22:06;;;;;;;4.70;1.50;;;;;;;;;;5032549;28;20025;-64
2022/02/26 02:24:32;;;;;;;7.22;1.45;;;;;;;;;;5029695;28;20045;-61
2022/02/26 02:27:02;;;;;;;3.25;1.42;;;;;;;;;;5024555;28;20384;-62
2022/02/26 02:29:28;;;;;;;5.05;1.30;;;;;;;;;;5015873;28;20022;-62
2022/02/26 02:31:55;;;;;;;10.27;1.50;;;;;;;;;;4994704;28;20030;-63
2022/02/26 02:34:21;;;;;;;3.28;1.27;;;;;;;;;;5012460;28;20033;-62
2022/02/26 02:36:47;;;;;;;4.25;1.40;;;;;;;;;;4994398;28;20132;-63
2022/02/26 02:39:14;;;;;;;6.65;1.77;;;;;;;;;;4992944;28;20026;-63
2022/02/26 02:41:40;;;;;;;3.92;1.40;;;;;;;;;;4992397;28;20607;-62
2022/02/26 02:44:06;;;;;;;5.60;1.73;;;;;;;;;;4992152;28;20038;-64
2022/02/26 02:46:33;;;;;;;3.28;1.42;;;;;;;;;;4992401;28;20030;-62
2022/02/26 02:48:59;;;;;;;2.83;1.50;;;;;;;;;;5019197;28;20088;-63
2022/02/26 02:51:26;;;;;;;5.07;1.20;;;;;;;;;;5028176;28;20034;-63
2022/02/26 02:53:52;;;;;;;4.18;1.50;;;;;;;;;;5031957;28;20517;-61
2022/02/26 02:56:18;;;;;;;4.60;1.50;;;;;;;;;;5032056;28;20116;-64
2022/02/26 02:58:44;;;;;;;2.13;1.27;;;;;;;;;;5031948;28;20021;-63
2022/02/26 03:01:10;;;;;;;3.55;1.30;;;;;;;;;;5031801;28;20481;-63
2022/02/26 03:03:36;;;;;;;3.83;1.55;;;;;;;;;;5031880;28;20108;-63
2022/02/26 03:06:02;;;;;;;4.65;1.67;;;;;;;;;;5022506;28;20072;-62
2022/02/26 03:08:28;;;;;;;3.60;1.50;;;;;;;;;;5023590;28;20473;-62
2022/02/26 03:10:55;;;;;;;2.97;1.30;;;;;;;;;;4994307;28;20034;-62
2022/02/26 03:13:21;;;;;;;4.75;1.38;;;;;;;;;;5012185;28;20025;-63
2022/02/26 03:15:51;;;;;;;4.70;1.17;;;;;;;;;;5012288;28;20037;-62
2022/02/26 03:18:18;;;;;;;4.75;1.58;;;;;;;;;;5011973;28;20100;-62
2022/02/26 03:20:44;;;;;;;3.15;1.27;;;;;;;;;;5012046;28;20026;-63
2022/02/26 03:23:10;;;;;;;5.35;1.40;;;;;;;;;;5019433;28;20033;-62
2022/02/26 03:25:36;;;;;;;3.42;1.17;;;;;;;;;;5029133;28;20083;-61
2022/02/26 03:28:02;;;;;;;4.28;1.73;;;;;;;;;;5026662;28;20034;-62
2022/02/26 03:30:28;;;;;;;3.60;1.40;;;;;;;;;;5011782;28;20026;-62
2022/02/26 03:32:54;;;;;;;11.05;1.60;;;;;;;;;;5011626;28;20022;-63
2022/02/26 03:35:20;;;;;;;14.32;1.40;;;;;;;;;;5005980;28;20022;-63
2022/02/26 03:37:46;;;;;;;3.40;1.60;;;;;;;;;;4998880;28;20730;-61
2022/02/26 03:40:13;;;;;;;3.17;1.30;;;;;;;;;;5005721;28;20060;-63
2022/02/26 03:42:39;;;;;;;3.92;1.20;;;;;;;;;;5031061;28;20053;-62
2022/02/26 03:45:05;;;;;;;6.28;1.25;;;;;;;;;;5031359;28;20413;-61
2022/02/26 03:47:31;;;;;;;4.43;1.73;;;;;;;;;;5031595;28;20084;-62
2022/02/26 03:49:57;;;;;;;15.15;1.42;;;;;;;;;;5031437;28;20040;-61
2022/02/26 03:52:23;;;;;;;4.38;1.27;;;;;;;;;;5031513;28;20041;-61
2022/02/26 03:54:50;;;;;;;10.77;1.67;;;;;;;;;;5031441;28;20536;-61
2022/02/26 03:57:16;;;;;;;5.38;1.30;;;;;;;;;;5022438;28;20030;-62
2022/02/26 03:59:42;;;;;;;4.68;1.75;;;;;;;;;;5033215;28;20025;-62
2022/02/26 04:02:08;;;;;;;13.52;1.48;;;;;;;;;;5034581;28;20065;-62
2022/02/26 04:04:35;;;;;;;2.20;1.10;;;;;;;;;;5034776;28;20017;-60
2022/02/26 04:07:01;;;;;;;7.78;1.40;;;;;;;;;;5034941;28;20044;-63
2022/02/26 04:09:27;;;;;;;6.53;1.40;;;;;;;;;;5034616;28;20029;-62
2022/02/26 04:11:53;;;;;;;9.18;1.50;;;;;;;;;;5016918;28;20495;-61
2022/02/26 04:14:19;;;;;;;4.95;1.20;;;;;;;;;;5021993;28;20037;-61
2022/02/26 04:16:45;;;;;;;3.75;1.30;;;;;;;;;;4978950;28;20030;-61
2022/02/26 04:19:11;;;;;;;4.05;1.20;;;;;;;;;;4995244;28;20532;-62
2022/02/26 04:21:37;;;;;;;3.72;1.58;;;;;;;;;;4977672;28;20117;-62
2022/02/26 04:24:03;;;;;;;4.70;1.40;;;;;;;;;;4995031;28;20034;-62
2022/02/26 04:26:29;;;;;;;6.65;1.52;;;;;;;;;;4995197;28;20023;-62
2022/02/26 04:28:55;;;;;;;3.35;1.25;;;;;;;;;;5015518;28;20473;-62
2022/02/26 04:31:22;;;;;;;3.20;1.40;;;;;;;;;;5029502;28;20045;-62
2022/02/26 04:33:48;;;;;;;4.40;1.27;;;;;;;;;;5034327;28;20028;-62
2022/02/26 04:36:14;;;;;;;4.32;1.40;;;;;;;;;;5020690;28;20108;-61
2022/02/26 04:38:41;;;;;;;5.30;1.58;;;;;;;;;;4996876;28;20489;-62
2022/02/26 04:41:07;;;;;;;6.00;1.48;;;;;;;;;;5013765;28;20037;-62
2022/02/26 04:43:34;;;;;;;3.08;1.23;;;;;;;;;;5014204;28;20054;-62
2022/02/26 04:46:01;;;;;;;3.28;1.38;;;;;;;;;;5014608;28;20033;-63
2022/02/26 04:48:27;;;;;;;2.17;1.27;;;;;;;;;;5014239;28;20036;-63
2022/02/26 04:50:53;;;;;;;4.80;1.17;;;;;;;;;;5014080;28;20030;-60
2022/02/26 04:53:19;;;;;;;5.18;1.42;;;;;;;;;;5014146;28;20026;-62
2022/02/26 04:55:45;;;;;;;3.42;1.23;;;;;;;;;;5014141;28;20025;-61
2022/02/26 04:58:11;;;;;;;3.63;1.30;;;;;;;;;;5014131;28;20038;-61
2022/02/26 05:00:37;;;;;;;3.72;1.20;;;;;;;;;;5014008;28;20759;-62
2022/02/26 05:03:03;;;;;;;4.75;1.30;;;;;;;;;;5017779;28;20025;-63
2022/02/26 05:05:29;;;;;;;7.10;1.92;;;;;;;;;;5007580;28;20378;-62
2022/02/26 05:07:55;;;;;;;2.47;1.17;;;;;;;;;;5033332;28;20030;-62
2022/02/26 05:10:21;;;;;;;4.63;1.33;;;;;;;;;;5033606;28;20071;-61
2022/02/26 05:12:48;;;;;;;6.32;1.33;;;;;;;;;;5033540;28;20547;-62
2022/02/26 05:15:14;;;;;;;4.25;1.52;;;;;;;;;;5033412;28;20076;-62
2022/02/26 05:17:41;;;;;;;3.80;1.33;;;;;;;;;;5033615;28;20064;-62
2022/02/26 05:20:07;;;;;;;14.00;1.50;;;;;;;;;;5033452;28;20025;-62
2022/02/26 05:22:35;;;;;;;3.97;1.30;;;;;;;;;;5033270;28;20028;-61
2022/02/26 05:25:02;;;;;;;6.00;1.20;;;;;;;;;;5033187;28;20026;-63
2022/02/26 05:27:28;;;;;;;4.78;1.52;;;;;;;;;;5033016;28;20025;-62
2022/02/26 05:29:53;;;;;;;5.20;1.60;;;;;;;;;;5016068;28;20035;-62
2022/02/26 05:32:20;;;;;;;4.70;1.60;;;;;;;;;;5024749;28;20033;-61
2022/02/26 05:34:46;;;;;;;3.65;1.17;;;;;;;;;;5013929;28;20330;-63
2022/02/26 05:37:12;;;;;;;3.55;1.13;;;;;;;;;;5013513;28;20068;-62
2022/02/26 05:39:38;;;;;;;3.45;1.45;;;;;;;;;;5013450;28;20033;-62
2022/02/26 05:42:04;;;;;;;5.72;1.25;;;;;;;;;;5013037;28;20014;-62
2022/02/26 05:44:30;;;;;;;5.55;1.40;;;;;;;;;;5013322;28;20076;-62
2022/02/26 05:46:56;;;;;;;4.63;1.27;;;;;;;;;;5016099;28;20030;-61
2022/02/26 05:49:24;;;;;;;3.90;1.30;;;;;;;;;;5024547;28;20033;-61
2022/02/26 05:51:50;;;;;;;5.05;1.35;;;;;;;;;;5015123;28;20120;-61
2022/02/26 05:54:16;;;;;;;3.90;1.40;;;;;;;;;;5032825;28;20033;-61
2022/02/26 05:56:42;;;;;;;3.70;1.00;;;;;;;;;;5014960;28;20028;-61
2022/02/26 05:59:08;;;;;;;5.80;1.60;;;;;;;;;;5032321;28;20070;-60
2022/02/26 06:01:34;;;;;;;2.33;1.17;;;;;;;;;;4994936;28;20041;-61
2022/02/26 06:04:00;;;;;;;3.55;1.48;;;;;;;;;;5005097;28;20041;-63
2022/02/26 06:06:27;;;;;;;3.75;1.30;;;;;;;;;;5004100;28;20129;-63
2022/02/26 06:08:53;;;;;;;2.70;1.25;;;;;;;;;;5008239;28;20557;-62
2022/02/26 06:11:21;;;;;;;2.03;1.23;;;;;;;;;;4988839;28;20022;-62
2022/02/26 06:13:47;;;;;;;4.47;1.40;;;;;;;;;;5006330;28;20030;-62
2022/02/26 06:16:14;;;;;;;6.50;1.63;;;;;;;;;;4995549;28;20088;-62
2022/02/26 06:18:40;;;;;;;23.95;1.65;;;;;;;;;;4994439;28;20405;-61
2022/02/26 06:21:06;;;;;;;9.00;1.40;;;;;;;;;;5011754;28;20034;-62
2022/02/26 06:23:32;;;;;;;6.97;1.50;;;;;;;;;;5016062;28;20108;-62
2022/02/26 06:25:58;;;;;;;11.80;1.65;;;;;;;;;;5005791;28;20029;-62
2022/02/26 06:28:24;;;;;;;2.83;0.90;;;;;;;;;;5004433;28;20030;-61
2022/02/26 06:30:50;;;;;;;7.20;1.58;;;;;;;;;;4987984;28;20367;-63
2022/02/26 06:33:17;;;;;;;12.23;1.50;;;;;;;;;;5000083;28;20041;-62
2022/02/26 06:35:44;;;;;;;7.53;1.63;;;;;;;;;;5016829;28;20014;-62
2022/02/26 06:38:10;;;;;;;2.90;1.40;;;;;;;;;;5015701;28;20026;-62
2022/02/26 06:40:38;;;;;;;5.13;1.52;;;;;;;;;;5028092;28;20017;-66
2022/02/26 06:43:05;;;;;;;10.02;1.88;;;;;;;;;;4987374;28;20066;-64
2022/02/26 06:45:31;;;;;;;10.52;1.60;;;;;;;;;;5002616;28;20026;-66
2022/02/26 06:47:57;;;;;;;19.00;1.92;;;;;;;;;;5004059;28;20084;-64
2022/02/26 06:50:27;;;;;;;13.57;1.73;;;;;;;;;;5004485;28;20068;-65
2022/02/26 06:52:53;;;;;;;8.07;2.10;;;;;;;;;;5006509;28;20141;-64
2022/02/26 06:55:20;;;;;;;26.92;2.65;;;;;;;;;;5000900;28;20030;-65
2022/02/26 06:57:46;;;;;;;18.45;2.10;;;;;;;;;;5007911;28;20034;-63
2022/02/26 07:00:13;;;;;;;22.73;2.20;;;;;;;;;;5004294;28;20034;-68
2022/02/26 07:02:40;;;;;;;14.00;1.88;;;;;;;;;;5005006;28;20019;-64
2022/02/26 07:05:06;;;;;;;9.45;1.70;;;;;;;;;;5009219;28;20092;-65
2022/02/26 07:07:32;;;;;;;14.90;2.05;;;;;;;;;;5007002;28;20029;-66
2022/02/26 07:09:58;;;;;;;6.57;1.42;;;;;;;;;;5001489;28;20022;-65
2022/02/26 07:12:24;;;;;;;5.63;1.45;;;;;;;;;;5002085;28;20037;-65
2022/02/26 07:14:50;;;;;;;9.30;1.65;;;;;;;;;;4981638;28;20041;-69
2022/02/26 07:17:17;;;;;;;7.57;1.70;;;;;;;;;;5003173;28;20022;-70
2022/02/26 07:19:43;;;;;;;7.53;1.90;;;;;;;;;;4984677;28;20034;-70
2022/02/26 07:22:09;;;;;;;9.43;2.00;;;;;;;;;;4982902;28;20101;-68
2022/02/26 07:24:35;;;;;;;10.70;2.35;;;;;;;;;;5003359;28;20103;-68
2022/02/26 07:27:01;;;;;;;7.93;2.35;;;;;;;;;;5002268;28;20025;-69
2022/02/26 07:29:29;;;;;;;6.15;2.10;;;;;;;;;;5001933;28;20049;-69
2022/02/26 07:31:55;;;;;;;11.43;2.22;;;;;;;;;;5005026;28;20421;-69
2022/02/26 07:34:21;;;;;;;9.43;2.47;;;;;;;;;;5004968;28;20022;-69
2022/02/26 07:36:47;;;;;;;16.23;2.45;;;;;;;;;;5014364;28;20034;-69
2022/02/26 07:39:14;;;;;;;6.68;2.28;;;;;;;;;;5010255;28;20022;-68
2022/02/26 07:41:40;;;;;;;19.38;2.90;;;;;;;;;;5009100;28;20030;-69
2022/02/26 07:44:06;;;;;;;14.05;3.88;;;;;;;;;;5011020;28;20048;-69
2022/02/26 07:46:32;;;;;;;42.72;15.95;;;;;;;;;;5006167;28;20415;-70
2022/02/26 07:48:58;;;;;;;47.17;19.60;;;;;;;;;;4988464;28;20113;-69
2022/02/26 07:51:24;;;;;;;47.55;21.33;;;;;;;;;;5012208;28;20125;-68
2022/02/26 07:53:51;;;;;;;70.22;21.38;;;;;;;;;;5014089;28;20052;-68
2022/02/26 07:56:17;;;;;;;45.10;19.30;;;;;;;;;;5004274;28;20014;-68
2022/02/26 07:58:43;;;;;;;51.15;19.52;;;;;;;;;;4991263;28;20576;-68
2022/02/26 08:01:09;;;;;;;35.97;17.48;;;;;;;;;;5005994;28;20700;-68
2022/02/26 08:03:35;;;;;;;38.58;16.42;;;;;;;;;;4990801;28;20068;-69
2022/02/26 08:06:01;;;;;;;52.42;15.38;;;;;;;;;;4985994;28;20049;-69
2022/02/26 08:08:27;;;;;;;32.17;13.45;;;;;;;;;;5007160;28;20027;-68
2022/02/26 08:10:54;;;;;;;27.13;12.48;;;;;;;;;;5006789;28;20537;-68
2022/02/26 08:13:20;;;;;;;37.35;11.63;;;;;;;;;;5004052;28;20093;-68
2022/02/26 08:15:47;;;;;;;30.15;11.32;;;;;;;;;;4986411;28;20041;-69
2022/02/26 08:18:15;;;;;;;39.60;9.80;;;;;;;;;;5007534;28;20030;-68
2022/02/26 08:20:41;;;;;;;35.33;9.48;;;;;;;;;;5015755;28;20062;-68
2022/02/26 08:23:07;;;;;;;19.30;8.13;;;;;;;;;;5008539;28;20081;-69
2022/02/26 08:25:34;;;;;;;35.58;8.02;;;;;;;;;;5003116;28;20033;-69
2022/02/26 08:28:00;;;;;;;13.63;7.18;;;;;;;;;;4987618;28;20037;-69
2022/02/26 08:30:26;;;;;;;17.35;6.60;;;;;;;;;;5006070;28;20026;-69
2022/02/26 08:32:52;;;;;;;12.95;6.43;;;;;;;;;;4988649;28;20033;-69
2022/02/26 08:35:19;;;;;;;14.38;6.25;;;;;;;;;;4989917;28;20058;-69
2022/02/26 08:37:49;;;;;;;28.65;6.10;;;;;;;;;;4992931;28;20029;-69
2022/02/26 08:40:16;;;;;;;24.85;6.03;;;;;;;;;;4997443;28;20369;-69
2022/02/26 08:42:42;;;;;;;10.60;5.45;;;;;;;;;;5014401;28;20033;-69
2022/02/26 08:45:09;;;;;;;13.95;5.85;;;;;;;;;;5014929;28;20056;-70
2022/02/26 08:47:35;;;;;;;20.63;7.97;;;;;;;;;;5014919;28;20022;-69
2022/02/26 08:50:02;;;;;;;19.52;8.48;;;;;;;;;;4997659;28;20033;-68
2022/02/26 08:52:28;;;;;;;17.50;7.85;;;;;;;;;;4997492;28;20477;-69
2022/02/26 08:54:54;;;;;;;20.95;9.15;;;;;;;;;;5014593;28;20025;-65
2022/02/26 08:57:21;;;;;;;17.98;9.05;;;;;;;;;;4996417;28;20030;-67
2022/02/26 08:59:47;;;;;;;17.83;7.90;;;;;;;;;;4997525;28;20080;-67
2022/02/26 09:02:13;;;;;;;23.50;8.57;;;;;;;;;;5005067;28;20037;-69
2022/02/26 09:04:39;;;;;;;30.60;8.98;;;;;;;;;;4996934;28;20032;-70
2022/02/26 09:07:05;;;;;;;12.52;7.40;;;;;;;;;;4994139;28;20456;-70
2022/02/26 09:09:31;;;;;;;17.15;8.00;;;;;;;;;;5005282;28;20389;-69
2022/02/26 09:11:58;;;;;;;41.20;7.65;;;;;;;;;;5004340;28;20121;-69
2022/02/26 09:14:24;;;;;;;25.45;7.53;;;;;;;;;;5006028;28;20018;-70
2022/02/26 09:16:50;;;;;;;26.55;7.60;;;;;;;;;;5002606;28;20691;-71
2022/02/26 09:19:16;;;;;;;23.20;7.15;;;;;;;;;;5004191;28;20022;-72
2022/02/26 09:21:42;;;;;;;31.55;7.05;;;;;;;;;;5003885;28;20022;-71
2022/02/26 09:24:09;;;;;;;27.35;6.78;;;;;;;;;;5003921;28;20041;-68
2022/02/26 09:26:35;;;;;;;17.27;6.65;;;;;;;;;;5009826;28;20034;-65
2022/02/26 09:29:01;;;;;;;24.48;6.65;;;;;;;;;;5002542;28;20437;-67
2022/02/26 09:31:27;;;;;;;19.42;7.15;;;;;;;;;;4977380;28;20103;-65
2022/02/26 09:33:53;;;;;;;23.92;7.03;;;;;;;;;;4994110;28;20466;-65
2022/02/26 09:36:19;;;;;;;11.95;5.93;;;;;;;;;;5007105;28;20077;-65
2022/02/26 09:38:45;;;;;;;20.33;6.45;;;;;;;;;;4994674;28;20030;-66
2022/02/26 09:41:11;;;;;;;12.85;5.65;;;;;;;;;;5011920;28;20022;-66
2022/02/26 09:43:37;;;;;;;19.73;5.07;;;;;;;;;;4995049;28;20125;-64
2022/02/26 09:46:05;;;;;;;14.43;5.90;;;;;;;;;;5012760;28;20064;-63
2022/02/26 09:48:31;;;;;;;14.32;5.32;;;;;;;;;;5008632;28;20026;-65
2022/02/26 09:50:57;;;;;;;14.80;5.55;;;;;;;;;;4993378;28;20022;-64
2022/02/26 09:53:23;;;;;;;13.73;4.55;;;;;;;;;;4993384;28;20089;-65
2022/02/26 09:55:53;;;;;;;19.50;5.03;;;;;;;;;;4992879;28;20346;-65
2022/02/26 09:58:20;;;;;;;10.38;4.68;;;;;;;;;;5003949;28;20026;-64
2022/02/26 10:00:47;;;;;;;7.40;4.35;;;;;;;;;;5006426;28;20033;-65
2022/02/26 10:03:32;;;;;;;12.30;4.55;;;;;;;;;;5007408;28;20034;-67
2022/02/26 10:06:14;;;;;;;12.25;4.40;;;;;;;;;;4999833;28;20042;-66
2022/02/26 10:08:48;;;;;;;7.88;4.00;;;;;;;;;;5011959;28;20376;-66
2022/02/26 10:11:27;;;;;;;8.10;4.07;;;;;;;;;;5011443;28;20026;-66
2022/02/26 10:13:59;;;;;;;10.13;3.72;;;;;;;;;;5006593;28;20623;-66
2022/02/26 10:16:44;;;;;;;7.37;3.47;;;;;;;;;;5011889;28;20081;-66
2022/02/26 10:19:11;;;;;;;13.98;3.05;;;;;;;;;;5013615;28;20527;-68
2022/02/26 10:21:41;;;;;;;9.32;3.83;;;;;;;;;;5009117;28;20029;-66
2022/02/26 10:24:08;;;;;;;6.13;3.42;;;;;;;;;;5011312;28;20054;-67
2022/02/26 10:26:34;;;;;;;7.88;3.78;;;;;;;;;;5007467;28;20030;-66
2022/02/26 10:29:09;;;;;;;8.05;3.58;;;;;;;;;;5011561;28;20446;-67
2022/02/26 10:31:43;;;;;;;8.48;3.22;;;;;;;;;;5009691;28;20470;-68
2022/02/26 10:34:28;;;;;;;6.65;2.85;;;;;;;;;;5008837;28;20026;-72
2022/02/26 10:37:07;;;;;;;7.47;2.88;;;;;;;;;;4985959;28;20401;-66
2022/02/26 10:39:35;;;;;;;5.00;3.50;;;;;;;;;;5006298;28;20022;-67
2022/02/26 10:42:01;;;;;;;5.70;3.10;;;;;;;;;;5010345;28;20030;-66
2022/02/26 10:44:27;;;;;;;5.63;2.88;;;;;;;;;;5010266;28;20037;-67
2022/02/26 10:47:04;;;;;;;7.93;3.20;;;;;;;;;;4988763;28;20030;-67
2022/02/26 10:49:31;;;;;;;5.68;2.90;;;;;;;;;;5018177;28;20128;-66
2022/02/26 10:51:57;;;;;;;3.72;2.58;;;;;;;;;;5023993;28;20181;-67
2022/02/26 10:54:24;;;;;;;5.35;2.70;;;;;;;;;;5017367;28;20117;-67
2022/02/26 10:56:50;;;;;;;4.55;2.40;;;;;;;;;;5011956;28;20124;-65
2022/02/26 10:59:27;;;;;;;11.82;2.85;;;;;;;;;;5011610;28;20022;-66
2022/02/26 11:02:04;;;;;;;9.18;3.13;;;;;;;;;;5011804;28;20034;-67
2022/02/26 11:04:31;;;;;;;5.65;2.80;;;;;;;;;;5011242;28;20018;-67
2022/02/26 11:06:57;;;;;;;7.80;2.65;;;;;;;;;;5015984;28;20052;-68
2022/02/26 11:09:23;;;;;;;5.40;2.80;;;;;;;;;;5014886;28;20061;-66
2022/02/26 11:11:50;;;;;;;8.13;3.92;;;;;;;;;;5013817;28;20040;-68
2022/02/26 11:14:18;;;;;;;5.25;2.95;;;;;;;;;;5000445;28;20029;-67
2022/02/26 11:16:44;;;;;;;4.97;2.90;;;;;;;;;;5014336;28;20046;-68
2022/02/26 11:19:16;;;;;;;6.75;3.22;;;;;;;;;;5000927;28;20026;-67
2022/02/26 11:21:42;;;;;;;5.05;2.60;;;;;;;;;;5015399;28;20355;-66
2022/02/26 11:24:13;;;;;;;6.20;2.88;;;;;;;;;;5014381;28;20030;-66
2022/02/26 11:26:39;;;;;;;5.35;3.15;;;;;;;;;;4997766;28;20040;-67
2022/02/26 11:29:05;;;;;;;10.75;3.03;;;;;;;;;;5013214;28;20033;-67
2022/02/26 11:31:51;;;;;;;6.47;2.78;;;;;;;;;;5014365;28;20026;-68
2022/02/26 11:34:24;;;;;;;5.47;2.60;;;;;;;;;;5006619;28;20034;-67
2022/02/26 11:36:52;;;;;;;5.82;2.97;;;;;;;;;;4997273;28;20406;-68
2022/02/26 11:39:38;;;;;;;7.70;2.88;;;;;;;;;;5013181;28;20045;-67
2022/02/26 11:42:16;;;;;;;6.32;3.00;;;;;;;;;;5008747;28;20053;-68
2022/02/26 11:44:43;;;;;;;9.15;3.45;;;;;;;;;;5014584;28;20026;-68
2022/02/26 11:47:17;;;;;;;6.30;3.30;;;;;;;;;;5013940;28;20033;-68
2022/02/26 11:49:56;;;;;;;6.10;2.33;;;;;;;;;;5014024;28;20026;-67
2022/02/26 11:52:35;;;;;;;5.72;2.78;;;;;;;;;;5013868;28;20033;-67
2022/02/26 11:55:01;;;;;;;5.20;2.80;;;;;;;;;;4993807;28;20037;-67
2022/02/26 11:57:29;;;;;;;9.13;3.05;;;;;;;;;;4996191;28;20031;-68
2022/02/26 12:00:08;;;;;;;13.82;2.75;;;;;;;;;;5014098;28;20194;-66
2022/02/26 12:02:34;;;;;;;5.68;2.60;;;;;;;;;;5014723;28;20034;-68
2022/02/26 12:05:01;;;;;;;8.52;2.90;;;;;;;;;;4996611;28;20050;-67
2022/02/26 12:07:30;;;;;;;8.13;2.67;;;;;;;;;;4998066;28;20023;-67
2022/02/26 12:10:00;;;;;;;9.32;2.40;;;;;;;;;;4975621;28;20038;-67
2022/02/26 12:12:31;;;;;;;5.85;2.60;;;;;;;;;;4976577;28;20069;-69
2022/02/26 12:14:57;;;;;;;6.25;2.58;;;;;;;;;;4990375;28;20505;-68
2022/02/26 12:17:23;;;;;;;6.35;2.55;;;;;;;;;;4990861;28;20179;-68
2022/02/26 12:19:54;;;;;;;5.95;2.50;;;;;;;;;;4991458;28;20026;-67
2022/02/26 12:22:21;;;;;;;11.10;2.85;;;;;;;;;;4994053;28;20027;-67
2022/02/26 12:24:48;;;;;;;8.00;2.60;;;;;;;;;;4996561;28;20027;-67
2022/02/26 12:27:14;;;;;;;6.40;2.53;;;;;;;;;;4975309;28;20030;-67
2022/02/26 12:29:40;;;;;;;9.05;2.70;;;;;;;;;;4992625;28;20076;-67
2022/02/26 12:32:08;;;;;;;6.22;2.72;;;;;;;;;;4992795;28;20050;-66
2022/02/26 12:35:03;;;;;;;7.72;2.30;;;;;;;;;;4993406;28;20443;-67
2022/02/26 12:37:31;;;;;;;12.57;5.65;;;;;;;;;;4988976;28;20038;-67
2022/02/26 12:39:58;;;;;;;17.00;6.80;;;;;;;;;;4991552;28;20037;-67
2022/02/26 12:42:25;;;;;;;16.33;8.20;;;;;;;;;;4974914;28;20041;-68
2022/02/26 12:44:54;;;;;;;15.50;9.00;;;;;;;;;;4993607;28;20528;-68
2022/02/26 12:47:20;;;;;;;20.55;10.13;;;;;;;;;;4993217;28;20157;-67
2022/02/26 12:49:47;;;;;;;21.17;11.80;;;;;;;;;;4990860;28;20031;-67
2022/02/26 12:52:13;;;;;;;22.35;11.38;;;;;;;;;;4992811;28;20042;-67
2022/02/26 12:54:39;;;;;;;24.67;12.32;;;;;;;;;;4993675;28;20098;-68
2022/02/26 12:57:05;;;;;;;28.05;13.80;;;;;;;;;;4992788;28;20030;-67
2022/02/26 12:59:32;;;;;;;25.73;13.23;;;;;;;;;;4992414;28;20080;-67
2022/02/26 13:01:59;;;;;;;26.35;13.45;;;;;;;;;;4992600;28;20039;-68
2022/02/26 13:04:30;;;;;;;30.27;13.18;;;;;;;;;;4993409;28;20234;-69
2022/02/26 13:07:00;;;;;;;26.45;15.05;;;;;;;;;;5012343;28;20120;-65
2022/02/26 13:09:27;;;;;;;32.92;15.88;;;;;;;;;;5012763;28;20025;-65
2022/02/26 13:11:54;;;;;;;31.40;15.70;;;;;;;;;;5012849;28;20038;-67
2022/02/26 13:14:21;;;;;;;29.83;15.63;;;;;;;;;;4994954;28;20044;-69
2022/02/26 13:16:57;;;;;;;31.48;15.68;;;;;;;;;;5012531;28;20061;-68
2022/02/26 13:19:24;;;;;;;28.10;15.10;;;;;;;;;;5010153;28;20133;-68
2022/02/26 13:21:50;;;;;;;28.60;15.23;;;;;;;;;;4995713;28;20485;-68
2022/02/26 13:24:16;;;;;;;28.33;14.52;;;;;;;;;;5012293;28;20054;-67
2022/02/26 13:26:42;;;;;;;35.88;14.60;;;;;;;;;;5010354;28;20115;-66
2022/02/26 13:29:09;;;;;;;33.97;14.98;;;;;;;;;;5012665;28;20022;-66
2022/02/26 13:31:36;;;;;;;29.77;14.52;;;;;;;;;;5013750;28;20112;-72
2022/02/26 13:34:19;;;;;;;38.42;15.05;;;;;;;;;;5013451;28;20377;-69
2022/02/26 13:36:47;;;;;;;34.53;13.50;;;;;;;;;;5011204;28;20022;-67
2022/02/26 13:39:13;;;;;;;50.95;13.63;;;;;;;;;;5013175;28;20037;-67
2022/02/26 13:41:39;;;;;;;36.33;13.20;;;;;;;;;;5013741;28;20022;-67
2022/02/26 13:44:10;;;;;;;27.50;13.02;;;;;;;;;;5012190;28;20033;-66
2022/02/26 13:46:37;;;;;;;27.40;13.25;;;;;;;;;;5012666;28;20025;-67
2022/02/26 13:49:04;;;;;;;34.30;13.05;;;;;;;;;;5012563;28;20026;-66
2022/02/26 13:51:32;;;;;;;26.38;11.68;;;;;;;;;;5012705;28;20034;-68
2022/02/26 13:53:58;;;;;;;25.92;11.68;;;;;;;;;;4995235;28;20030;-68
2022/02/26 13:56:27;;;;;;;22.00;11.15;;;;;;;;;;5012583;28;20136;-67
2022/02/26 13:58:54;;;;;;;25.20;11.60;;;;;;;;;;4995684;28;20029;-68
2022/02/26 14:01:20;;;;;;;28.77;11.23;;;;;;;;;;5012314;28;20030;-71
2022/02/26 14:03:50;;;;;;;24.48;10.60;;;;;;;;;;5012862;28;20025;-67
2022/02/26 14:06:17;;;;;;;23.60;10.93;;;;;;;;;;5011898;28;20062;-68
2022/02/26 14:08:44;;;;;;;23.88;9.48;;;;;;;;;;5012483;28;20369;-67
2022/02/26 14:11:10;;;;;;;23.20;10.20;;;;;;;;;;5011698;28;20117;-69
2022/02/26 14:13:36;;;;;;;25.15;9.85;;;;;;;;;;5012985;28;20117;-68
2022/02/26 14:16:06;;;;;;;22.55;9.57;;;;;;;;;;5011198;28;20032;-70
2022/02/26 14:18:35;;;;;;;24.33;9.25;;;;;;;;;;5012961;28;20080;-67
2022/02/26 14:21:01;;;;;;;21.75;9.18;;;;;;;;;;5011833;28;20484;-69
2022/02/26 14:23:27;;;;;;;18.90;9.02;;;;;;;;;;5012025;28;20026;-67
2022/02/26 14:25:56;;;;;;;23.98;8.68;;;;;;;;;;4994132;28;20088;-68
2022/02/26 14:28:23;;;;;;;22.67;7.72;;;;;;;;;;5011471;28;20049;-69
2022/02/26 14:30:49;;;;;;;20.25;7.47;;;;;;;;;;4980789;28;20030;-70
2022/02/26 14:33:15;;;;;;;23.95;6.80;;;;;;;;;;5007763;28;20037;-70
2022/02/26 14:35:42;;;;;;;12.70;6.45;;;;;;;;;;4970684;28;20022;-68
2022/02/26 14:38:08;;;;;;;18.33;6.70;;;;;;;;;;4994523;28;20041;-72